Time;durP1;ratioP1;P1;durP2;ratioP2;P2;SDS_P1;SDS_P2;PMS_P1;PMS_P2;Temp;Humidity;BMP_temperature;BMP_pressure;BME280_temperature;BME280_humidity;BME280_pressure;Samples;Min_cycle;Max_cycle;Signal;HPM_P1;HPM_P2
2021/10/08 00:01:28;;;;;;;10.10;8.95;;;9.60;99.90;;;;;;4988484;28;20038;-33
2021/10/08 00:03:54;;;;;;;9.85;8.85;;;9.50;99.90;;;;;;4976377;28;20042;-33
2021/10/08 00:06:20;;;;;;;10.23;9.02;;;9.50;99.90;;;;;;4987884;28;20104;-33
2021/10/08 00:08:47;;;;;;;11.00;9.30;;;9.50;99.90;;;;;;4977860;28;20051;-32
2021/10/08 00:11:13;;;;;;;13.23;10.38;;;9.40;99.90;;;;;;4986297;28;20022;-33
2021/10/08 00:13:39;;;;;;;11.73;9.38;;;9.40;99.90;;;;;;4980007;28;20106;-33
2021/10/08 00:16:05;;;;;;;13.13;9.88;;;9.30;99.90;;;;;;4984591;28;20125;-33
2021/10/08 00:18:32;;;;;;;11.48;9.52;;;9.30;99.90;;;;;;4981809;28;20023;-33
2021/10/08 00:20:58;;;;;;;11.38;9.25;;;9.30;99.90;;;;;;4969081;28;20034;-33
2021/10/08 00:23:24;;;;;;;11.20;9.35;;;9.20;99.90;;;;;;4971688;28;20030;-33
2021/10/08 00:25:49;;;;;;;10.15;8.82;;;9.20;99.90;;;;;;4977105;28;20033;-33
2021/10/08 00:28:17;;;;;;;10.80;9.55;;;9.20;99.90;;;;;;4970386;28;20069;-33
2021/10/08 00:30:43;;;;;;;11.45;9.23;;;9.20;99.90;;;;;;4979174;28;20027;-33
2021/10/08 00:33:09;;;;;;;10.73;8.85;;;9.20;99.90;;;;;;4978404;28;20536;-33
2021/10/08 00:35:35;;;;;;;10.73;8.48;;;9.20;99.90;;;;;;4977239;28;20492;-33
2021/10/08 00:38:03;;;;;;;12.80;9.27;;;9.10;99.90;;;;;;4990619;28;20042;-33
2021/10/08 00:40:31;;;;;;;10.20;8.82;;;9.10;99.90;;;;;;4978752;28;20033;-33
2021/10/08 00:42:57;;;;;;;11.20;8.70;;;9.10;99.90;;;;;;4991661;28;20077;-33
2021/10/08 00:45:22;;;;;;;10.82;9.00;;;9.10;99.90;;;;;;4978973;28;20066;-33
2021/10/08 00:48:18;;;;;;;13.15;9.52;;;9.10;99.90;;;;;;4991252;28;20367;-34
2021/10/08 00:50:47;;;;;;;11.13;8.98;;;9.00;99.90;;;;;;4977356;28;20034;-33
2021/10/08 00:53:14;;;;;;;11.38;8.90;;;9.00;99.90;;;;;;4992097;28;20034;-33
2021/10/08 00:55:51;;;;;;;11.18;9.20;;;9.00;99.90;;;;;;4988094;28;20489;-33
2021/10/08 00:58:19;;;;;;;11.25;9.55;;;9.00;99.90;;;;;;4973065;28;20027;-33
2021/10/08 01:00:47;;;;;;;12.35;9.55;;;9.00;99.90;;;;;;4982786;28;20421;-33
2021/10/08 01:03:14;;;;;;;13.57;9.45;;;9.00;99.90;;;;;;4971979;28;20468;-33
2021/10/08 01:05:41;;;;;;;13.15;10.48;;;9.00;99.90;;;;;;4981356;28;20019;-32
2021/10/08 01:08:11;;;;;;;14.45;10.95;;;9.00;99.90;;;;;;4973815;28;20086;-33
2021/10/08 01:10:44;;;;;;;13.75;10.82;;;8.90;99.90;;;;;;4979458;28;20069;-33
2021/10/08 01:13:11;;;;;;;14.50;11.30;;;8.90;99.90;;;;;;4974717;28;20031;-33
2021/10/08 01:15:37;;;;;;;16.58;11.95;;;8.90;99.90;;;;;;4977840;28;20010;-33
2021/10/08 01:18:03;;;;;;;15.85;11.35;;;8.90;99.90;;;;;;4976390;28;20106;-33
2021/10/08 01:20:29;;;;;;;14.93;11.20;;;8.90;99.90;;;;;;4975667;28;20018;-33
2021/10/08 01:22:57;;;;;;;15.68;11.43;;;8.90;99.90;;;;;;4978993;28;20113;-33
2021/10/08 01:25:25;;;;;;;15.93;12.55;;;8.90;99.90;;;;;;4973833;28;20022;-33
2021/10/08 01:27:51;;;;;;;16.90;12.40;;;8.90;99.90;;;;;;4981301;28;20029;-33
2021/10/08 01:30:17;;;;;;;16.92;12.38;;;8.90;99.90;;;;;;4971911;28;20023;-33
2021/10/08 01:32:43;;;;;;;19.95;12.63;;;8.90;99.90;;;;;;4982096;28;20056;-33
2021/10/08 01:35:08;;;;;;;17.05;12.15;;;8.90;99.90;;;;;;4972212;28;20082;-33
2021/10/08 01:37:34;;;;;;;17.30;12.27;;;8.90;99.90;;;;;;4981157;28;20041;-32
2021/10/08 01:40:03;;;;;;;16.73;12.00;;;8.90;99.90;;;;;;4972010;28;20019;-33
2021/10/08 01:42:29;;;;;;;13.82;10.90;;;8.90;99.90;;;;;;4982269;28;20045;-33
2021/10/08 01:44:54;;;;;;;14.07;10.50;;;8.80;99.90;;;;;;4970462;28;20075;-32
2021/10/08 01:47:20;;;;;;;15.50;10.85;;;8.80;99.90;;;;;;4983726;28;20058;-33
2021/10/08 01:49:45;;;;;;;16.70;11.65;;;8.80;99.90;;;;;;4969238;28;20097;-33
2021/10/08 01:52:11;;;;;;;15.95;12.27;;;8.70;99.90;;;;;;4980971;28;20030;-33
2021/10/08 01:54:37;;;;;;;18.65;12.70;;;8.70;99.90;;;;;;4972952;28;20027;-33
2021/10/08 01:57:02;;;;;;;16.67;11.90;;;8.70;99.90;;;;;;4977485;28;20088;-33
2021/10/08 01:59:28;;;;;;;18.40;13.07;;;8.70;99.90;;;;;;4975496;28;20034;-33
2021/10/08 02:01:53;;;;;;;18.60;13.75;;;8.70;99.90;;;;;;4975645;28;20026;-33
2021/10/08 02:04:19;;;;;;;20.90;14.20;;;8.70;99.90;;;;;;4977934;28;20027;-33
2021/10/08 02:06:44;;;;;;;19.05;14.00;;;8.70;99.90;;;;;;4972249;28;20030;-33
2021/10/08 02:09:10;;;;;;;19.58;14.20;;;8.70;99.90;;;;;;4981296;28;20034;-33
2021/10/08 02:11:36;;;;;;;19.02;13.48;;;8.70;99.90;;;;;;4971748;28;20536;-33
2021/10/08 02:14:02;;;;;;;18.58;13.60;;;8.70;99.90;;;;;;4979180;28;20557;-32
2021/10/08 02:16:28;;;;;;;18.30;13.10;;;8.60;99.90;;;;;;4989382;28;20033;-33
2021/10/08 02:18:55;;;;;;;16.02;12.88;;;8.60;99.90;;;;;;4977992;28;20386;-33
2021/10/08 02:21:22;;;;;;;18.23;13.05;;;8.60;99.90;;;;;;4990169;28;20106;-33
2021/10/08 02:23:47;;;;;;;16.73;12.27;;;8.60;99.90;;;;;;4977778;28;20524;-33
2021/10/08 02:26:13;;;;;;;17.80;12.23;;;8.60;99.90;;;;;;4989300;28;20034;-33
2021/10/08 02:28:39;;;;;;;18.23;12.98;;;8.50;99.90;;;;;;4977085;28;20032;-33
2021/10/08 02:31:05;;;;;;;18.02;12.02;;;8.50;99.90;;;;;;4989798;28;20030;-33
2021/10/08 02:33:31;;;;;;;19.88;13.40;;;8.50;99.90;;;;;;4979671;28;20062;-33
2021/10/08 02:35:56;;;;;;;17.50;12.23;;;8.50;99.90;;;;;;4987069;28;20030;-33
2021/10/08 02:38:23;;;;;;;16.58;12.15;;;8.50;99.90;;;;;;4985087;28;20030;-33
2021/10/08 02:40:48;;;;;;;17.77;13.18;;;8.40;99.90;;;;;;4974580;28;20042;-33
2021/10/08 02:43:14;;;;;;;17.55;12.52;;;8.40;99.90;;;;;;4974183;28;20108;-33
2021/10/08 02:45:41;;;;;;;16.33;11.90;;;8.40;99.90;;;;;;4981767;28;20040;-33
2021/10/08 02:48:06;;;;;;;16.17;11.73;;;8.40;99.90;;;;;;4987492;28;20105;-33
2021/10/08 02:50:33;;;;;;;17.52;11.15;;;8.40;99.90;;;;;;4979237;28;20118;-33
2021/10/08 02:52:58;;;;;;;15.73;11.32;;;8.40;99.90;;;;;;4987850;28;20137;-33
2021/10/08 02:55:24;;;;;;;16.35;11.38;;;8.40;99.90;;;;;;4978671;28;20154;-33
2021/10/08 02:57:49;;;;;;;17.67;11.77;;;8.30;99.90;;;;;;4988406;28;20034;-32
2021/10/08 03:00:15;;;;;;;15.10;11.25;;;8.30;99.90;;;;;;4978170;28;20783;-33
2021/10/08 03:02:41;;;;;;;16.75;11.63;;;8.30;99.90;;;;;;4989267;28;20116;-33
2021/10/08 03:05:07;;;;;;;17.55;11.82;;;8.30;99.90;;;;;;4977237;28;20425;-33
2021/10/08 03:07:33;;;;;;;17.40;11.95;;;8.20;99.90;;;;;;4988423;28;20529;-32
2021/10/08 03:09:59;;;;;;;17.58;11.70;;;8.20;99.90;;;;;;4977426;28;20126;-32
2021/10/08 03:12:27;;;;;;;16.58;12.07;;;8.20;99.90;;;;;;4988178;28;20022;-33
2021/10/08 03:14:53;;;;;;;15.68;11.40;;;8.20;99.90;;;;;;4979155;28;20048;-33
2021/10/08 03:17:19;;;;;;;17.52;12.15;;;8.20;99.90;;;;;;4986696;28;20030;-33
2021/10/08 03:19:45;;;;;;;16.05;11.75;;;8.10;99.90;;;;;;4981809;28;20454;-32
2021/10/08 03:22:10;;;;;;;17.02;12.13;;;8.10;99.90;;;;;;4982529;28;20038;-32
2021/10/08 03:24:36;;;;;;;17.88;12.43;;;8.10;99.90;;;;;;4984184;28;20049;-32
2021/10/08 03:27:02;;;;;;;16.88;12.38;;;8.00;99.90;;;;;;4981170;28;20481;-33
2021/10/08 03:29:28;;;;;;;16.88;11.02;;;8.00;99.90;;;;;;4985926;28;20273;-33
2021/10/08 03:31:53;;;;;;;17.02;12.50;;;8.00;99.90;;;;;;4978801;28;20381;-32
2021/10/08 03:34:19;;;;;;;18.83;13.27;;;7.90;99.90;;;;;;4971136;28;20015;-32
2021/10/08 03:36:56;;;;;;;17.13;12.52;;;7.90;99.90;;;;;;4979011;28;20510;-32
2021/10/08 03:39:28;;;;;;;18.73;12.60;;;7.90;99.90;;;;;;4970702;28;20027;-33
2021/10/08 03:41:54;;;;;;;18.50;12.68;;;7.90;99.90;;;;;;4980801;28;20117;-33
2021/10/08 03:44:21;;;;;;;17.95;12.95;;;7.90;99.90;;;;;;4968956;28;20093;-33
2021/10/08 03:46:52;;;;;;;18.58;12.25;;;7.90;99.90;;;;;;4976923;28;20085;-32
2021/10/08 03:49:19;;;;;;;17.73;12.52;;;7.90;99.90;;;;;;4989169;28;20466;-34
2021/10/08 03:51:46;;;;;;;16.15;11.75;;;7.80;99.90;;;;;;4976043;28;20065;-32
2021/10/08 03:54:14;;;;;;;18.55;13.63;;;7.80;99.90;;;;;;4989375;28;20018;-32
2021/10/08 03:56:40;;;;;;;18.38;12.82;;;7.80;99.90;;;;;;4975215;28;20035;-33
2021/10/08 03:59:06;;;;;;;16.98;12.40;;;7.80;99.90;;;;;;4989438;28;20031;-33
2021/10/08 04:01:32;;;;;;;18.20;12.43;;;7.80;99.90;;;;;;4978301;28;20049;-32
2021/10/08 04:03:58;;;;;;;18.13;13.23;;;7.80;99.90;;;;;;4986136;28;20416;-32
2021/10/08 04:06:24;;;;;;;19.80;13.18;;;7.80;99.90;;;;;;4981117;28;20613;-32
2021/10/08 04:08:50;;;;;;;16.10;12.05;;;7.80;99.90;;;;;;4983739;28;20385;-32
2021/10/08 04:11:15;;;;;;;17.52;12.60;;;7.80;99.90;;;;;;4983144;28;20037;-33
2021/10/08 04:13:41;;;;;;;16.13;12.60;;;7.80;99.90;;;;;;4985039;28;20911;-32
2021/10/08 04:16:06;;;;;;;19.63;14.25;;;7.90;99.90;;;;;;4990403;28;20424;-32
2021/10/08 04:18:33;;;;;;;21.23;13.60;;;7.90;99.90;;;;;;4981847;28;20023;-32
2021/10/08 04:20:59;;;;;;;19.10;13.57;;;8.00;99.90;;;;;;4991286;28;20080;-33
2021/10/08 04:23:25;;;;;;;18.70;13.45;;;8.00;99.90;;;;;;4981655;28;20133;-32
2021/10/08 04:25:51;;;;;;;19.15;13.45;;;8.10;99.90;;;;;;4990784;28;20109;-32
2021/10/08 04:28:16;;;;;;;36.03;12.02;;;8.10;99.90;;;;;;4981713;28;20050;-32
2021/10/08 04:30:42;;;;;;;36.15;10.93;;;8.10;99.90;;;;;;4992509;28;20073;-32
2021/10/08 04:33:22;;;;;;;55.22;10.70;;;8.10;99.90;;;;;;4985510;28;20034;-32
2021/10/08 04:35:49;;;;;;;32.90;9.32;;;8.10;99.90;;;;;;4992745;28;20475;-33
2021/10/08 04:38:16;;;;;;;42.80;8.85;;;8.10;99.90;;;;;;4980089;28;20030;-34
2021/10/08 04:40:42;;;;;;;41.05;8.50;;;8.10;99.90;;;;;;4990829;28;21021;-31
2021/10/08 04:43:08;;;;;;;33.13;8.65;;;8.10;99.90;;;;;;4980322;28;20050;-32
2021/10/08 04:45:34;;;;;;;25.08;7.88;;;8.10;99.90;;;;;;4990522;28;20180;-32
2021/10/08 04:48:00;;;;;;;22.08;7.88;;;8.00;99.90;;;;;;4982677;28;20478;-32
2021/10/08 04:50:26;;;;;;;15.38;8.73;;;8.00;99.90;;;;;;4988623;28;20037;-32
2021/10/08 04:52:51;;;;;;;15.63;8.60;;;8.00;99.90;;;;;;4985164;28;20113;-32
2021/10/08 04:55:17;;;;;;;12.18;9.68;;;8.00;99.90;;;;;;4986381;28;20038;-33
2021/10/08 04:57:43;;;;;;;12.77;9.93;;;7.90;99.90;;;;;;4987019;28;20026;-32
2021/10/08 05:00:10;;;;;;;13.65;10.25;;;7.80;99.90;;;;;;4983633;28;20023;-32
2021/10/08 05:02:35;;;;;;;16.23;11.45;;;7.80;99.90;;;;;;4988644;28;20049;-32
2021/10/08 05:05:01;;;;;;;16.52;11.50;;;7.80;99.90;;;;;;4981714;28;20353;-32
2021/10/08 05:07:29;;;;;;;17.60;12.30;;;7.70;99.90;;;;;;4989467;28;20066;-33
2021/10/08 05:09:55;;;;;;;17.00;12.70;;;7.70;99.90;;;;;;4980692;28;20023;-32
2021/10/08 05:12:25;;;;;;;16.80;12.90;;;7.70;99.90;;;;;;4991328;28;20030;-32
2021/10/08 05:14:51;;;;;;;19.33;12.95;;;7.70;99.90;;;;;;4980544;28;20042;-32
2021/10/08 05:17:17;;;;;;;20.95;12.25;;;7.70;99.90;;;;;;4991461;28;20026;-33
2021/10/08 05:19:42;;;;;;;19.02;11.85;;;7.60;99.90;;;;;;4978846;28;20447;-32
2021/10/08 05:22:08;;;;;;;18.05;12.73;;;7.60;99.90;;;;;;4990962;28;20042;-32
2021/10/08 05:24:34;;;;;;;17.52;12.02;;;7.70;99.90;;;;;;4977289;28;20030;-32
2021/10/08 05:26:59;;;;;;;21.52;13.15;;;7.60;99.90;;;;;;4991738;28;20125;-32
2021/10/08 05:29:25;;;;;;;35.45;13.77;;;7.60;99.90;;;;;;4980675;28;20026;-33
2021/10/08 05:31:50;;;;;;;33.35;13.30;;;7.60;99.90;;;;;;4989158;28;20033;-33
2021/10/08 05:34:16;;;;;;;46.15;12.50;;;7.60;99.90;;;;;;4980383;28;20385;-32
2021/10/08 05:36:42;;;;;;;33.70;12.05;;;7.70;99.90;;;;;;4975878;28;20653;-32
2021/10/08 05:39:07;;;;;;;52.42;11.98;;;7.70;99.90;;;;;;4976769;28;20465;-33
2021/10/08 05:41:33;;;;;;;37.83;11.77;;;7.70;99.90;;;;;;4978535;28;20433;-33
2021/10/08 05:43:58;;;;;;;22.85;11.45;;;7.70;99.90;;;;;;4972428;28;20055;-33
2021/10/08 05:46:24;;;;;;;39.95;12.85;;;7.70;99.90;;;;;;4982125;28;20039;-33
2021/10/08 05:48:49;;;;;;;33.45;12.18;;;7.70;99.90;;;;;;4987826;28;20096;-33
2021/10/08 05:51:16;;;;;;;45.47;11.98;;;7.70;99.90;;;;;;4979863;28;20031;-33
2021/10/08 05:53:42;;;;;;;31.65;11.70;;;7.70;99.90;;;;;;4969988;28;20465;-32
2021/10/08 05:56:07;;;;;;;33.55;12.60;;;7.80;99.90;;;;;;4976180;28;20426;-33
2021/10/08 05:58:33;;;;;;;23.67;10.85;;;7.80;99.90;;;;;;4988116;28;20065;-33
2021/10/08 06:00:58;;;;;;;23.73;11.38;;;7.80;99.90;;;;;;4977437;28;20054;-33
2021/10/08 06:03:24;;;;;;;29.23;12.63;;;7.80;99.90;;;;;;4989381;28;20043;-33
2021/10/08 06:05:50;;;;;;;29.85;12.35;;;7.80;99.90;;;;;;4987802;28;20026;-33
2021/10/08 06:08:15;;;;;;;30.83;11.98;;;7.90;99.90;;;;;;4971980;28;20027;-33
2021/10/08 06:10:41;;;;;;;51.15;13.02;;;8.00;99.90;;;;;;4972633;28;20714;-33
2021/10/08 06:13:08;;;;;;;55.83;11.80;;;8.00;99.90;;;;;;4986049;28;20026;-33
2021/10/08 06:15:34;;;;;;;42.70;10.90;;;8.00;99.90;;;;;;4981699;28;20478;-33
2021/10/08 06:17:59;;;;;;;44.63;9.90;;;8.00;99.90;;;;;;4983071;28;20057;-33
2021/10/08 06:20:26;;;;;;;39.28;10.30;;;8.10;99.90;;;;;;4982164;28;20105;-33
2021/10/08 06:22:53;;;;;;;55.67;10.68;;;8.10;99.90;;;;;;4982350;28;20058;-33
2021/10/08 06:25:19;;;;;;;49.55;10.88;;;8.10;99.90;;;;;;4984928;28;20037;-33
2021/10/08 06:27:46;;;;;;;50.10;10.70;;;8.10;99.90;;;;;;4980787;28;20023;-33
2021/10/08 06:30:13;;;;;;;44.38;11.40;;;8.20;99.90;;;;;;4972121;28;20038;-29
2021/10/08 06:32:39;;;;;;;31.70;10.90;;;8.20;99.90;;;;;;4983891;28;20033;-30
2021/10/08 06:35:06;;;;;;;38.15;11.52;;;8.20;99.90;;;;;;4989374;28;20399;-30
2021/10/08 06:37:32;;;;;;;39.22;11.30;;;8.20;99.90;;;;;;4977785;28;20023;-29
2021/10/08 06:39:57;;;;;;;47.80;11.85;;;8.20;99.90;;;;;;4989643;28;20033;-30
2021/10/08 06:42:26;;;;;;;66.68;13.02;;;8.20;99.90;;;;;;4977752;28;20446;-30
2021/10/08 06:44:53;;;;;;;58.38;12.05;;;8.30;99.90;;;;;;4989743;28;20046;-29
2021/10/08 06:47:22;;;;;;;64.43;12.55;;;8.30;99.90;;;;;;4977236;28;20023;-30
2021/10/08 06:49:48;;;;;;;70.85;13.60;;;8.30;99.90;;;;;;4969926;28;20019;-30
2021/10/08 06:52:14;;;;;;;42.03;12.55;;;8.30;99.90;;;;;;4979423;28;20089;-30
2021/10/08 06:54:40;;;;;;;64.93;12.63;;;8.40;99.90;;;;;;4972324;28;20027;-30
2021/10/08 06:57:06;;;;;;;67.00;12.93;;;8.40;99.90;;;;;;4977441;28;20089;-30
2021/10/08 06:59:31;;;;;;;53.30;13.48;;;8.40;99.90;;;;;;4973857;28;20113;-30
2021/10/08 07:02:00;;;;;;;64.80;14.45;;;8.50;99.90;;;;;;4974710;28;20114;-30
2021/10/08 07:04:28;;;;;;;56.58;14.00;;;8.60;99.90;;;;;;4976635;28;20394;-29
2021/10/08 07:06:53;;;;;;;35.92;14.55;;;8.60;99.90;;;;;;4972918;28;20022;-32
2021/10/08 07:09:19;;;;;;;38.17;14.20;;;8.60;99.90;;;;;;4979005;28;20587;-29
2021/10/08 07:11:44;;;;;;;52.35;13.23;;;8.60;99.90;;;;;;4970261;28;20018;-30
2021/10/08 07:14:19;;;;;;;49.00;15.00;;;8.70;99.90;;;;;;4980228;28;20113;-29
2021/10/08 07:16:46;;;;;;;58.55;15.80;;;8.70;99.90;;;;;;4970517;28;20426;-33
2021/10/08 07:19:14;;;;;;;92.85;15.55;;;8.80;99.90;;;;;;4980357;28;20027;-32
2021/10/08 07:21:42;;;;;;;38.10;14.98;;;8.90;99.90;;;;;;4969623;28;20034;-34
2021/10/08 07:24:10;;;;;;;72.50;15.23;;;8.90;99.90;;;;;;4980424;28;20026;-32
2021/10/08 07:26:36;;;;;;;68.30;14.60;;;9.00;99.90;;;;;;4968814;28;20030;-34
2021/10/08 07:29:02;;;;;;;127.18;15.55;;;9.00;99.90;;;;;;4981224;28;20085;-32
2021/10/08 07:31:31;;;;;;;72.00;14.40;;;9.10;99.90;;;;;;4968810;28;20077;-32
2021/10/08 07:33:57;;;;;;;75.63;14.18;;;9.20;99.90;;;;;;4980130;28;20028;-32
2021/10/08 07:36:26;;;;;;;57.65;14.65;;;9.20;99.90;;;;;;4981660;28;20022;-33
2021/10/08 07:38:51;;;;;;;53.88;14.55;;;9.30;99.90;;;;;;4975009;28;20034;-32
2021/10/08 07:41:17;;;;;;;49.58;15.90;;;9.30;99.90;;;;;;4986461;28;20027;-32
2021/10/08 07:43:43;;;;;;;85.05;16.40;;;9.30;99.90;;;;;;4979746;28;20042;-32
2021/10/08 07:46:10;;;;;;;65.90;16.08;;;9.40;99.90;;;;;;4969703;28;20066;-32
2021/10/08 07:48:36;;;;;;;40.35;16.30;;;9.40;99.90;;;;;;4972831;28;20097;-32
2021/10/08 07:51:02;;;;;;;42.38;16.52;;;9.50;99.90;;;;;;4973622;28;20054;-32
2021/10/08 07:53:31;;;;;;;67.03;16.30;;;9.50;99.90;;;;;;4971937;28;20069;-31
2021/10/08 07:55:58;;;;;;;35.95;16.02;;;9.50;99.90;;;;;;4985673;28;20478;-31
2021/10/08 07:58:30;;;;;;;25.70;16.30;;;9.60;99.90;;;;;;4987366;28;20503;-32
2021/10/08 08:01:00;;;;;;;33.67;16.40;;;9.70;99.90;;;;;;4978923;28;20025;-31
2021/10/08 08:03:26;;;;;;;24.90;16.77;;;9.70;99.90;;;;;;4985960;28;20313;-31
2021/10/08 08:05:52;;;;;;;27.20;15.65;;;9.80;99.90;;;;;;4977808;28;20077;-31
2021/10/08 08:08:18;;;;;;;27.30;15.27;;;9.90;99.90;;;;;;4987624;28;20030;-31
2021/10/08 08:10:44;;;;;;;25.83;17.75;;;10.00;99.90;;;;;;4976957;28;20022;-32
2021/10/08 08:13:10;;;;;;;23.23;16.65;;;10.00;99.90;;;;;;4988669;28;20169;-32
2021/10/08 08:15:36;;;;;;;28.20;16.98;;;10.00;99.90;;;;;;4976151;28;21529;-31
2021/10/08 08:18:02;;;;;;;25.75;17.25;;;10.10;99.90;;;;;;4988959;28;20500;-32
2021/10/08 08:20:30;;;;;;;35.03;17.52;;;10.20;99.90;;;;;;4973735;28;20078;-32
2021/10/08 08:22:56;;;;;;;25.65;17.70;;;10.20;99.90;;;;;;4989162;28;20096;-32
2021/10/08 08:25:25;;;;;;;25.70;17.10;;;10.30;99.90;;;;;;4977362;28;20024;-33
2021/10/08 08:27:50;;;;;;;27.05;17.33;;;10.30;99.90;;;;;;4986807;28;20027;-32
2021/10/08 08:30:18;;;;;;;28.63;18.33;;;10.40;99.90;;;;;;4980550;28;20034;-32
2021/10/08 08:36:23;;;;;;;35.05;17.90;;;10.50;99.90;;;;;;4949756;28;20078;-32
2021/10/08 08:38:49;;;;;;;23.00;15.85;;;10.50;99.90;;;;;;4968494;28;20031;-32
2021/10/08 08:41:14;;;;;;;29.42;16.85;;;10.50;99.90;;;;;;4981300;28;20027;-32
2021/10/08 08:43:43;;;;;;;26.20;18.42;;;10.60;99.90;;;;;;4968837;28;20057;-32
2021/10/08 08:46:17;;;;;;;28.55;18.08;;;10.60;99.90;;;;;;4991095;28;20030;-32
2021/10/08 08:48:43;;;;;;;24.33;17.23;;;10.60;99.90;;;;;;4970134;28;20026;-32
2021/10/08 08:58:45;;;;;;;25.27;17.52;;;10.80;99.90;;;;;;5013828;28;20052;-36
2021/10/08 09:02:06;;;;;;;25.00;15.93;;;10.90;99.90;;;;;;4990185;28;20019;-36
2021/10/08 09:04:33;;;;;;;22.33;15.43;;;10.90;99.90;;;;;;4990420;28;20782;-36
2021/10/08 09:06:59;;;;;;;23.60;16.48;;;11.00;99.90;;;;;;4978982;28;20652;-37
2021/10/08 09:09:26;;;;;;;24.15;16.73;;;11.00;99.90;;;;;;4991885;28;20101;-36
2021/10/08 09:11:55;;;;;;;21.55;14.70;;;11.00;99.90;;;;;;4981678;28;20015;-36
2021/10/08 09:14:29;;;;;;;26.55;18.25;;;10.90;99.90;;;;;;4988671;28;20027;-36
2021/10/08 09:17:09;;;;;;;27.88;17.45;;;11.00;99.90;;;;;;4983364;28;20023;-36
2021/10/08 09:19:53;;;;;;;25.15;17.65;;;10.90;99.90;;;;;;4989449;28;20587;-35
2021/10/08 09:22:39;;;;;;;24.58;17.83;;;10.90;99.90;;;;;;4980501;28;20047;-35
2021/10/08 09:25:14;;;;;;;28.23;18.15;;;11.00;99.90;;;;;;4972740;28;20035;-35
2021/10/08 09:27:46;;;;;;;28.38;18.02;;;11.00;99.90;;;;;;4982876;28;20668;-35
2021/10/08 09:30:13;;;;;;;28.10;18.57;;;11.00;99.90;;;;;;4972166;28;20022;-37
2021/10/08 09:33:00;;;;;;;28.90;19.08;;;11.00;99.90;;;;;;4979769;28;20468;-35
2021/10/08 09:35:26;;;;;;;28.50;19.27;;;11.10;99.90;;;;;;4970912;28;20552;-35
2021/10/08 09:38:22;;;;;;;32.75;20.45;;;11.10;99.90;;;;;;4982819;28;20109;-35
2021/10/08 09:40:57;;;;;;;29.13;20.00;;;11.10;99.90;;;;;;4970328;28;20039;-34
2021/10/08 09:43:22;;;;;;;30.70;19.75;;;11.20;99.90;;;;;;4983407;28;20196;-35
2021/10/08 09:45:53;;;;;;;30.60;19.48;;;11.30;99.90;;;;;;4972229;28;20477;-35
2021/10/08 09:48:21;;;;;;;30.98;20.00;;;11.30;99.90;;;;;;4982270;28;20026;-35
2021/10/08 09:51:03;;;;;;;30.48;19.95;;;11.40;99.90;;;;;;4971434;28;20030;-35
2021/10/08 09:53:31;;;;;;;30.33;19.48;;;11.50;99.90;;;;;;4982635;28;20477;-35
2021/10/08 09:55:56;;;;;;;33.28;20.38;;;11.50;99.90;;;;;;4970827;28;20557;-30
2021/10/08 09:58:22;;;;;;;31.80;20.75;;;11.60;99.90;;;;;;4979980;28;20110;-30
2021/10/08 10:00:57;;;;;;;29.50;20.08;;;11.70;99.90;;;;;;4974110;28;20018;-31
2021/10/08 10:03:22;;;;;;;32.35;21.50;;;11.80;99.90;;;;;;4978098;28;20026;-32
2021/10/08 10:05:48;;;;;;;30.88;20.95;;;11.80;99.90;;;;;;4987658;28;20022;-32
2021/10/08 10:08:14;;;;;;;32.58;20.67;;;11.90;99.90;;;;;;4986900;28;20033;-32
2021/10/08 10:10:40;;;;;;;31.88;20.95;;;11.90;99.90;;;;;;4976206;28;20023;-31
2021/10/08 10:13:08;;;;;;;31.80;20.13;;;12.00;99.90;;;;;;4972100;28;20019;-29
2021/10/08 10:15:35;;;;;;;23.98;15.75;;;12.10;99.90;;;;;;4981381;28;20037;-30
2021/10/08 10:21:39;;;;;;;31.65;20.02;;;12.20;99.90;;;;;;5009165;28;20086;-34
2021/10/08 10:24:07;;;;;;;29.45;18.92;;;12.40;99.90;;;;;;4981943;28;20051;-33
2021/10/08 10:26:33;;;;;;;30.90;19.35;;;12.40;99.90;;;;;;4986020;28;20121;-32
2021/10/08 10:29:04;;;;;;;34.58;20.42;;;12.50;99.90;;;;;;4983687;28;20035;-33
2021/10/08 10:31:35;;;;;;;29.70;18.52;;;12.60;99.90;;;;;;4986707;28;20021;-31
2021/10/08 10:34:05;;;;;;;29.17;18.50;;;12.60;99.90;;;;;;4982612;28;20041;-31
2021/10/08 10:36:44;;;;;;;30.45;19.40;;;12.70;99.90;;;;;;4978043;28;20019;-31
2021/10/08 10:39:20;;;;;;;34.03;19.52;;;12.80;99.90;;;;;;4970885;28;20495;-31
2021/10/08 10:42:14;;;;;;;29.35;18.23;;;12.90;99.90;;;;;;4976785;28;20416;-32
2021/10/08 10:45:03;;;;;;;;;;;12.90;99.90;;;;;;4980143;28;20047;-31
2021/10/08 10:47:35;;;;;;;29.48;16.75;;;12.90;99.90;;;;;;4977792;28;19918;-32
2021/10/08 10:50:18;;;;;;;28.50;16.40;;;13.00;99.90;;;;;;4975505;28;20176;-31
2021/10/08 10:56:29;;;;;;;28.88;15.98;;;13.10;99.90;;;;;;4918733;29;19923;-31
2021/10/08 10:59:22;;;;;;;23.90;14.30;;;13.20;99.90;;;;;;4891804;29;20539;-31
2021/10/08 11:04:35;;;;;;;22.38;14.13;;;13.20;99.90;;;;;;4900192;28;20436;-31
2021/10/08 11:07:08;;;;;;;22.38;14.88;;;13.30;99.90;;;;;;4979103;28;20394;-31
2021/10/08 11:09:36;;;;;;;21.67;12.50;;;13.40;99.90;;;;;;4971827;28;20027;-31
2021/10/08 11:12:39;;;;;;;21.75;13.45;;;13.40;99.90;;;;;;4982944;28;20107;-31
2021/10/08 11:15:20;;;;;;;19.90;13.40;;;13.50;99.90;;;;;;4971951;28;20402;-32
2021/10/08 11:18:02;;;;;;;18.83;12.95;;;13.60;99.90;;;;;;4977120;28;20614;-31
2021/10/08 11:20:43;;;;;;;19.45;12.63;;;13.60;99.90;;;;;;4975089;28;20019;-32
2021/10/08 11:27:12;;;;;;;17.75;12.80;;;13.70;99.90;;;;;;4920262;28;20085;-32
2021/10/08 11:30:25;;;;;;;17.85;12.05;;;13.80;99.90;;;;;;4953008;28;20038;-32
2021/10/08 11:36:38;;;;;;;11.73;9.23;;;13.90;99.90;;;;;;4994664;28;20045;-32
2021/10/08 11:39:55;;;;;;;12.40;9.00;;;14.00;99.90;;;;;;4983808;28;20034;-32
2021/10/08 11:52:39;;;;;;;7.95;6.65;;;14.20;99.90;;;;;;4989349;28;20019;-31
2021/10/08 11:55:09;;;;;;;8.85;6.78;;;14.20;99.90;;;;;;4981347;28;20096;-32
2021/10/08 11:58:11;;;;;;;8.95;6.63;;;14.30;99.90;;;;;;4989597;28;20031;-32
2021/10/08 12:01:06;;;;;;;8.30;6.00;;;14.30;99.90;;;;;;4972199;28;20356;-38
2021/10/08 12:04:20;;;;;;;6.72;5.72;;;14.40;99.90;;;;;;4866879;28;20961;-38
2021/10/08 12:06:47;;;;;;;6.95;5.95;;;14.50;99.90;;;;;;4942453;28;20038;-40
2021/10/08 12:09:47;;;;;;;6.10;4.80;;;14.50;99.90;;;;;;4993209;28;20025;-39
2021/10/08 12:12:16;;;;;;;6.43;4.72;;;14.60;99.90;;;;;;4990172;28;20026;-38
2021/10/08 12:14:47;;;;;;;6.57;4.50;;;14.70;99.90;;;;;;4993265;28;20053;-38
2021/10/08 12:17:13;;;;;;;4.80;3.72;;;14.70;99.90;;;;;;5003911;28;20019;-39
2021/10/08 12:19:49;;;;;;;3.50;3.20;;;14.70;99.90;;;;;;4993149;28;20038;-39
2021/10/08 12:22:37;;;;;;;3.88;3.50;;;14.80;99.90;;;;;;5008193;28;20095;-39
2021/10/08 12:25:10;;;;;;;6.05;3.40;;;14.80;99.90;;;;;;4977535;28;20081;-38
2021/10/08 12:28:00;;;;;;;3.30;3.00;;;14.90;99.90;;;;;;4982266;28;20043;-38
2021/10/08 12:34:47;;;;;;;4.53;3.15;;;15.00;99.90;;;;;;4959035;28;20580;-38
2021/10/08 12:40:45;;;;;;;2.63;2.42;;;15.20;99.90;;;;;;4997676;28;20101;-42
2021/10/08 12:43:20;;;;;;;2.70;2.50;;;15.20;99.90;;;;;;4987708;28;20038;-41
2021/10/08 12:45:46;;;;;;;3.45;2.25;;;15.30;99.90;;;;;;4982682;28;20117;-42
2021/10/08 12:48:18;;;;;;;3.47;2.40;;;15.30;99.90;;;;;;4990462;28;20101;-41
2021/10/08 12:50:43;;;;;;;2.63;2.42;;;15.40;99.90;;;;;;4981391;28;20114;-42
2021/10/08 12:53:20;;;;;;;2.45;2.00;;;15.40;99.90;;;;;;4990065;28;20113;-42
2021/10/08 12:55:46;;;;;;;3.35;1.80;;;15.40;99.90;;;;;;4979421;28;20034;-42
2021/10/08 12:58:15;;;;;;;2.67;2.17;;;15.50;99.90;;;;;;4989558;28;20050;-42
2021/10/08 13:00:52;;;;;;;2.50;2.08;;;15.50;99.90;;;;;;4980244;28;20028;-43
2021/10/08 13:03:27;;;;;;;2.25;1.90;;;15.60;99.90;;;;;;4989758;28;20042;-42
2021/10/08 13:05:54;;;;;;;2.08;1.92;;;15.70;99.90;;;;;;4979583;28;20121;-41
2021/10/08 13:08:21;;;;;;;3.88;2.35;;;15.70;99.90;;;;;;4990230;28;20030;-41
2021/10/08 13:11:09;;;;;;;2.42;1.85;;;15.80;99.90;;;;;;4979681;28;20460;-41
2021/10/08 13:13:39;;;;;;;2.47;2.03;;;15.80;99.90;;;;;;4989035;28;20053;-40
2021/10/08 13:16:12;;;;;;;2.67;2.22;;;15.90;99.90;;;;;;4980416;28;20022;-41
2021/10/08 13:18:41;;;;;;;2.78;2.53;;;15.90;99.90;;;;;;4989127;28;20038;-41
2021/10/08 13:21:07;;;;;;;3.50;2.47;;;15.90;99.90;;;;;;4982309;28;20027;-41
2021/10/08 13:23:34;;;;;;;3.40;2.85;;;15.90;99.90;;;;;;4971497;28;20104;-42
2021/10/08 13:25:59;;;;;;;4.47;3.92;;;15.90;99.90;;;;;;4982703;28;20027;-40
2021/10/08 13:28:29;;;;;;;4.65;4.15;;;16.00;99.90;;;;;;4971268;28;20030;-40
2021/10/08 13:30:57;;;;;;;6.35;4.90;;;16.00;99.90;;;;;;4983226;28;20031;-41
2021/10/08 13:33:27;;;;;;;4.65;4.20;;;16.00;99.90;;;;;;4974909;28;20748;-43
2021/10/08 13:35:54;;;;;;;5.65;4.75;;;16.00;99.90;;;;;;4979629;28;20027;-40